Time;durP1;ratioP1;P1;durP2;ratioP2;P2;SDS_P1;SDS_P2;PMS_P1;PMS_P2;Temp;Humidity;BMP_temperature;BMP_pressure;BME280_temperature;BME280_humidity;BME280_pressure;Samples;Min_cycle;Max_cycle;Signal;HPM_P1;HPM_P2
2024/01/28 00:00:40;;;;;;;25.95;13.13;;;1.60;99.90;;;;;;5010224;28;20049;-70
2024/01/28 00:03:06;;;;;;;24.15;12.90;;;1.50;99.90;;;;;;5001438;28;20508;-71
2024/01/28 00:05:32;;;;;;;20.33;11.60;;;1.50;99.90;;;;;;5005722;28;20068;-70
2024/01/28 00:07:58;;;;;;;22.25;11.88;;;1.50;99.90;;;;;;5017763;28;20029;-71
2024/01/28 00:10:24;;;;;;;20.60;11.63;;;1.50;99.90;;;;;;5009272;28;20045;-70
2024/01/28 00:12:50;;;;;;;23.33;11.48;;;1.50;99.90;;;;;;5009752;28;20030;-70
2024/01/28 00:15:16;;;;;;;23.35;11.60;;;1.50;99.90;;;;;;5006803;28;20065;-71
2024/01/28 00:17:41;;;;;;;25.67;12.80;;;1.50;99.90;;;;;;5010126;28;20022;-71
2024/01/28 00:20:07;;;;;;;21.50;12.10;;;1.50;99.90;;;;;;5010041;28;20033;-70
2024/01/28 00:22:33;;;;;;;26.05;13.02;;;1.50;99.90;;;;;;5010364;28;20040;-70
2024/01/28 00:24:59;;;;;;;21.85;11.80;;;1.50;99.90;;;;;;5008578;28;20034;-71
2024/01/28 00:27:24;;;;;;;25.50;12.30;;;1.50;99.90;;;;;;5007710;28;20100;-71
2024/01/28 00:29:51;;;;;;;26.85;13.00;;;1.60;99.90;;;;;;5010061;28;20448;-72
2024/01/28 00:32:16;;;;;;;22.70;13.07;;;1.60;99.90;;;;;;5002410;28;20022;-71
2024/01/28 00:34:42;;;;;;;24.77;13.35;;;1.60;99.90;;;;;;5012554;28;20056;-71
2024/01/28 00:37:08;;;;;;;23.52;12.68;;;1.60;99.90;;;;;;5011540;28;20029;-71
2024/01/28 00:39:35;;;;;;;24.08;13.27;;;1.60;99.90;;;;;;5003327;28;20018;-71
2024/01/28 00:42:01;;;;;;;21.02;11.63;;;1.60;99.90;;;;;;5013119;28;20024;-70
2024/01/28 00:44:27;;;;;;;21.48;11.82;;;1.60;99.90;;;;;;5011663;28;20345;-71
2024/01/28 00:46:55;;;;;;;23.02;11.98;;;1.60;99.90;;;;;;5001076;28;20026;-70
2024/01/28 00:49:23;;;;;;;20.70;10.70;;;1.60;99.90;;;;;;5003040;28;20026;-70
2024/01/28 00:51:49;;;;;;;21.50;11.48;;;1.60;99.90;;;;;;5005775;28;20026;-72
2024/01/28 00:54:15;;;;;;;24.15;12.48;;;1.60;99.90;;;;;;5002288;28;20113;-70
2024/01/28 00:56:41;;;;;;;21.67;11.85;;;1.60;99.90;;;;;;5004679;28;20485;-70
2024/01/28 00:59:06;;;;;;;19.70;10.70;;;1.60;99.90;;;;;;5007569;28;20111;-70
2024/01/28 01:01:32;;;;;;;18.33;11.00;;;1.60;99.90;;;;;;5007702;28;20073;-70
2024/01/28 01:03:58;;;;;;;19.42;9.77;;;1.60;99.90;;;;;;5011607;28;20575;-70
2024/01/28 01:06:23;;;;;;;20.67;11.63;;;1.50;99.90;;;;;;5002377;28;20022;-70
2024/01/28 01:08:49;;;;;;;21.38;11.63;;;1.50;99.90;;;;;;5009243;28;20030;-70
2024/01/28 01:11:15;;;;;;;18.15;10.95;;;1.50;99.90;;;;;;5010943;28;20038;-70
2024/01/28 01:13:40;;;;;;;21.90;10.40;;;1.50;99.90;;;;;;4983352;28;20062;-70
2024/01/28 01:16:06;;;;;;;22.88;12.23;;;1.50;99.90;;;;;;4995203;28;20031;-70
2024/01/28 01:18:32;;;;;;;18.35;10.98;;;1.50;99.90;;;;;;4966449;28;20145;-70
2024/01/28 01:20:58;;;;;;;23.60;13.02;;;1.50;99.90;;;;;;4971906;28;20022;-70
2024/01/28 01:23:23;;;;;;;23.23;11.98;;;1.40;99.90;;;;;;4967545;28;20089;-70
2024/01/28 01:25:49;;;;;;;25.88;11.23;;;1.40;99.90;;;;;;4968698;28;20553;-71
2024/01/28 01:28:14;;;;;;;20.15;10.25;;;1.40;99.90;;;;;;4973749;28;20106;-70
2024/01/28 01:30:40;;;;;;;19.67;11.35;;;1.40;99.90;;;;;;4976060;28;20034;-71
2024/01/28 01:33:06;;;;;;;18.55;10.75;;;1.40;99.90;;;;;;4962074;28;20505;-71
2024/01/28 01:35:32;;;;;;;20.90;11.30;;;1.40;99.90;;;;;;4969955;28;20085;-70
2024/01/28 01:37:57;;;;;;;19.52;10.85;;;1.40;99.90;;;;;;4971389;28;20023;-70
2024/01/28 01:40:23;;;;;;;21.02;10.90;;;1.30;99.90;;;;;;4974320;28;20019;-70
2024/01/28 01:42:50;;;;;;;22.42;11.70;;;1.30;99.90;;;;;;4977518;28;20054;-72
2024/01/28 01:45:16;;;;;;;26.15;11.70;;;1.30;99.90;;;;;;4974736;28;20022;-70
2024/01/28 01:47:42;;;;;;;22.75;12.00;;;1.30;99.90;;;;;;4974195;28;20456;-70
2024/01/28 01:50:10;;;;;;;20.98;11.70;;;1.30;99.90;;;;;;4974387;28;20027;-70
2024/01/28 01:52:42;;;;;;;21.60;11.57;;;1.30;99.90;;;;;;4971846;28;20039;-69
2024/01/28 01:55:09;;;;;;;22.17;12.18;;;1.30;99.90;;;;;;4970413;28;20030;-70
2024/01/28 01:57:37;;;;;;;22.88;11.65;;;1.20;99.90;;;;;;4966841;28;20470;-70
2024/01/28 02:00:04;;;;;;;24.35;12.95;;;1.20;99.90;;;;;;4970023;28;20046;-70
2024/01/28 02:02:30;;;;;;;23.08;11.68;;;1.20;99.90;;;;;;4969279;28;20042;-70
2024/01/28 02:04:56;;;;;;;23.65;11.80;;;1.20;99.90;;;;;;4972868;28;20386;-70
2024/01/28 02:07:22;;;;;;;24.13;12.50;;;1.20;99.90;;;;;;4968760;28;20027;-70
2024/01/28 02:09:48;;;;;;;24.90;13.40;;;1.20;99.90;;;;;;4968338;28;20084;-70
2024/01/28 02:12:13;;;;;;;25.67;13.32;;;1.20;99.90;;;;;;4967676;28;20031;-72
2024/01/28 02:14:39;;;;;;;23.23;12.07;;;1.20;99.90;;;;;;4969128;28;20038;-70
2024/01/28 02:17:05;;;;;;;20.08;11.15;;;1.20;99.90;;;;;;4969849;28;20407;-70
2024/01/28 02:19:31;;;;;;;23.10;11.15;;;1.20;99.90;;;;;;4975307;28;20111;-70
2024/01/28 02:21:56;;;;;;;18.65;11.38;;;1.10;99.90;;;;;;4969212;28;20311;-71
2024/01/28 02:24:22;;;;;;;20.95;10.95;;;1.10;99.90;;;;;;4969893;28;20098;-71
2024/01/28 02:26:47;;;;;;;21.83;11.13;;;1.10;99.90;;;;;;4976017;28;20035;-71
2024/01/28 02:29:13;;;;;;;18.70;10.73;;;1.10;99.90;;;;;;4978147;28;20094;-71
2024/01/28 02:31:38;;;;;;;22.70;10.52;;;1.10;99.90;;;;;;4975964;28;20069;-71
2024/01/28 02:34:04;;;;;;;21.33;10.35;;;1.00;99.90;;;;;;4971060;28;20033;-71
2024/01/28 02:36:31;;;;;;;20.45;11.38;;;1.00;99.90;;;;;;4969848;28;20103;-70
2024/01/28 02:38:58;;;;;;;27.80;13.25;;;1.00;99.90;;;;;;4974107;28;20533;-71
2024/01/28 02:41:24;;;;;;;20.75;11.27;;;1.00;99.90;;;;;;4970737;28;20053;-71
2024/01/28 02:43:50;;;;;;;20.88;11.38;;;0.90;99.90;;;;;;4967160;28;20031;-71
2024/01/28 02:46:15;;;;;;;23.48;10.45;;;0.90;99.90;;;;;;4970077;28;20368;-71
2024/01/28 02:48:41;;;;;;;23.70;11.60;;;0.90;99.90;;;;;;4971455;28;20035;-70
2024/01/28 02:51:07;;;;;;;26.23;12.68;;;0.90;99.90;;;;;;4975354;28;20474;-70
2024/01/28 02:53:33;;;;;;;21.60;11.50;;;0.90;99.90;;;;;;4973098;28;20035;-71
2024/01/28 02:56:00;;;;;;;20.38;11.70;;;0.90;99.90;;;;;;4975197;28;20441;-70
2024/01/28 02:58:30;;;;;;;24.90;11.68;;;0.90;99.90;;;;;;4974773;28;20023;-71
2024/01/28 03:00:55;;;;;;;21.75;11.65;;;0.80;99.90;;;;;;4976586;28;20069;-70
2024/01/28 03:03:21;;;;;;;25.30;11.82;;;0.80;99.90;;;;;;4964772;28;20110;-71
2024/01/28 03:05:46;;;;;;;22.23;10.68;;;0.70;99.90;;;;;;4971791;28;20027;-71
2024/01/28 03:08:12;;;;;;;24.50;12.10;;;0.60;99.90;;;;;;4976848;28;20042;-70
2024/01/28 03:10:38;;;;;;;27.33;12.52;;;0.60;99.90;;;;;;4972334;28;20043;-73
2024/01/28 03:13:04;;;;;;;23.08;11.93;;;0.50;99.90;;;;;;4975695;28;20053;-70
2024/01/28 03:15:29;;;;;;;21.00;12.23;;;0.50;99.90;;;;;;4971804;28;20042;-71
2024/01/28 03:17:55;;;;;;;27.15;15.27;;;0.40;99.90;;;;;;4972355;28;20469;-71
2024/01/28 03:20:21;;;;;;;23.25;11.93;;;0.40;99.90;;;;;;4972883;28;20033;-73
2024/01/28 03:22:46;;;;;;;26.50;11.77;;;0.40;99.90;;;;;;4976169;28;20494;-71
2024/01/28 03:25:15;;;;;;;21.80;10.43;;;0.40;99.90;;;;;;4970294;28;20085;-71
2024/01/28 03:27:41;;;;;;;25.60;12.05;;;0.40;99.90;;;;;;4971942;28;20037;-71
2024/01/28 03:30:07;;;;;;;22.90;11.63;;;0.40;99.90;;;;;;4972154;28;20031;-71
2024/01/28 03:32:33;;;;;;;21.50;11.80;;;0.40;99.90;;;;;;4970687;28;20042;-71
2024/01/28 03:35:00;;;;;;;25.25;12.38;;;0.40;99.90;;;;;;4972860;28;20019;-71
2024/01/28 03:37:26;;;;;;;23.08;12.05;;;0.40;99.90;;;;;;4970208;28;20109;-70
2024/01/28 03:39:52;;;;;;;29.80;11.93;;;0.40;99.90;;;;;;4976761;28;20168;-71
2024/01/28 03:42:17;;;;;;;26.40;12.20;;;0.40;99.90;;;;;;4968167;28;20031;-71
2024/01/28 03:44:43;;;;;;;21.05;11.80;;;0.40;99.90;;;;;;4973661;28;20058;-72
2024/01/28 03:47:09;;;;;;;19.45;10.38;;;0.40;99.90;;;;;;4970923;28;20042;-71
2024/01/28 03:49:34;;;;;;;21.65;10.90;;;0.40;99.90;;;;;;4973296;28;20026;-71
2024/01/28 03:52:00;;;;;;;25.15;12.52;;;0.40;99.90;;;;;;4972576;28;20586;-71
2024/01/28 03:54:26;;;;;;;22.85;11.95;;;0.40;99.90;;;;;;4972166;28;20031;-71
2024/01/28 03:56:51;;;;;;;21.92;11.48;;;0.40;99.90;;;;;;4967926;28;20082;-71
2024/01/28 03:59:17;;;;;;;20.08;10.07;;;0.40;99.90;;;;;;4967632;28;20129;-71
2024/01/28 04:01:43;;;;;;;22.52;11.85;;;0.40;99.90;;;;;;4971957;28;20409;-71
2024/01/28 04:04:08;;;;;;;20.52;10.55;;;0.40;99.90;;;;;;4969897;28;20031;-71
2024/01/28 04:06:40;;;;;;;19.33;10.98;;;0.30;99.90;;;;;;4965742;28;20114;-70
2024/01/28 04:09:06;;;;;;;27.10;11.60;;;0.30;99.90;;;;;;4971874;28;20041;-71
2024/01/28 04:11:31;;;;;;;24.92;10.65;;;0.30;99.90;;;;;;4970402;28;20034;-71
2024/01/28 04:13:57;;;;;;;18.00;10.52;;;0.30;99.90;;;;;;4967654;28;20053;-71
2024/01/28 04:16:23;;;;;;;21.25;10.25;;;0.30;99.90;;;;;;4965768;28;20033;-71
2024/01/28 04:18:50;;;;;;;22.42;12.02;;;0.30;99.90;;;;;;4968590;28;20030;-70
2024/01/28 04:21:15;;;;;;;20.70;10.45;;;0.30;99.90;;;;;;4974388;28;20014;-71
2024/01/28 04:23:41;;;;;;;17.60;10.40;;;0.30;99.90;;;;;;4970375;28;20042;-71
2024/01/28 04:26:08;;;;;;;18.27;9.73;;;0.30;99.90;;;;;;4975834;28;20449;-71
2024/01/28 04:28:33;;;;;;;16.33;9.25;;;0.20;99.90;;;;;;4969196;28;20105;-71
2024/01/28 04:31:01;;;;;;;20.77;10.27;;;0.30;99.90;;;;;;4974993;28;20544;-71
2024/01/28 04:33:26;;;;;;;17.10;10.10;;;0.20;99.90;;;;;;4972231;28;20494;-71
2024/01/28 04:35:52;;;;;;;19.70;10.15;;;0.20;99.90;;;;;;4973154;28;20058;-71
2024/01/28 04:38:18;;;;;;;24.73;10.23;;;0.20;99.90;;;;;;4968533;28;20222;-70
2024/01/28 04:40:43;;;;;;;21.58;10.52;;;0.20;99.90;;;;;;4972109;28;20362;-71
2024/01/28 04:43:09;;;;;;;16.50;10.10;;;0.10;99.90;;;;;;4966634;28;20090;-70
2024/01/28 04:45:36;;;;;;;20.55;10.27;;;0.10;99.90;;;;;;4971839;28;20110;-70
2024/01/28 04:48:01;;;;;;;22.70;11.13;;;0.10;99.90;;;;;;4973755;28;20391;-70
2024/01/28 04:50:27;;;;;;;15.57;9.70;;;0.10;99.90;;;;;;4975453;28;20054;-71
2024/01/28 04:52:52;;;;;;;20.30;10.05;;;0.00;99.90;;;;;;4970769;28;20042;-70
2024/01/28 04:55:18;;;;;;;19.63;10.82;;;0.10;99.90;;;;;;4965317;28;20050;-70
2024/01/28 04:57:44;;;;;;;18.33;10.13;;;0.00;99.90;;;;;;4971905;28;20023;-70
2024/01/28 05:00:10;;;;;;;16.83;9.38;;;0.00;99.90;;;;;;4973601;28;20023;-70
2024/01/28 05:02:39;;;;;;;15.93;9.10;;;0.10;99.90;;;;;;4968207;28;20035;-70
2024/01/28 05:05:05;;;;;;;20.27;9.77;;;0.00;99.90;;;;;;4971410;28;20102;-71
2024/01/28 05:07:31;;;;;;;18.17;8.98;;;0.00;99.90;;;;;;4970037;28;20121;-71
2024/01/28 05:09:57;;;;;;;16.25;8.93;;;0.00;99.90;;;;;;4970918;28;20489;-70
2024/01/28 05:12:23;;;;;;;18.02;9.80;;;0.00;99.90;;;;;;4969675;28;20070;-70
2024/01/28 05:14:49;;;;;;;20.60;10.82;;;0.00;99.90;;;;;;4964801;28;20498;-70
2024/01/28 05:17:14;;;;;;;21.45;11.50;;;0.00;99.90;;;;;;4971230;28;20498;-70
2024/01/28 05:19:40;;;;;;;15.57;9.60;;;0.10;99.90;;;;;;4964906;28;20022;-70
2024/01/28 05:22:06;;;;;;;21.25;11.05;;;0.00;99.90;;;;;;4970560;28;20023;-70
2024/01/28 05:24:31;;;;;;;18.15;9.73;;;0.00;99.90;;;;;;4972706;28;20027;-70
2024/01/28 05:26:57;;;;;;;20.98;10.27;;;0.00;99.90;;;;;;4965980;28;20421;-70
2024/01/28 05:29:23;;;;;;;18.58;9.93;;;0.00;99.90;;;;;;4972656;28;20029;-71
2024/01/28 05:31:51;;;;;;;18.23;9.75;;;0.10;99.90;;;;;;4966191;28;20504;-71
2024/01/28 05:34:17;;;;;;;15.98;9.68;;;0.10;99.90;;;;;;4970343;28;20074;-71
2024/01/28 05:36:48;;;;;;;17.42;8.88;;;0.10;99.90;;;;;;4972019;28;20022;-71
2024/01/28 05:39:13;;;;;;;20.27;10.18;;;0.10;99.90;;;;;;4968233;28;20051;-71
2024/01/28 05:41:39;;;;;;;18.10;9.00;;;0.10;99.90;;;;;;4970037;28;20031;-71
2024/01/28 05:44:04;;;;;;;20.38;10.57;;;0.10;99.90;;;;;;4973000;28;20030;-71
2024/01/28 05:46:30;;;;;;;18.52;9.93;;;0.10;99.90;;;;;;4970330;28;20037;-71
2024/01/28 05:48:55;;;;;;;18.25;9.65;;;0.10;99.90;;;;;;4971884;28;20049;-71
2024/01/28 05:51:21;;;;;;;23.50;11.02;;;0.10;99.90;;;;;;4972921;28;20493;-71
2024/01/28 05:53:47;;;;;;;21.75;10.88;;;0.00;99.90;;;;;;4971867;28;20487;-71
2024/01/28 05:56:12;;;;;;;19.38;9.95;;;0.00;99.90;;;;;;4973101;28;20349;-71
2024/01/28 05:58:38;;;;;;;15.88;9.43;;;0.00;99.90;;;;;;4970049;28;20033;-70
2024/01/28 06:01:06;;;;;;;19.42;9.13;;;-0.10;99.90;;;;;;4975049;28;20046;-70
2024/01/28 06:03:33;;;;;;;18.40;9.75;;;-0.10;99.90;;;;;;4967077;28;20390;-70
2024/01/28 06:05:59;;;;;;;16.20;9.05;;;-0.10;99.90;;;;;;4974417;28;20401;-71
2024/01/28 06:08:24;;;;;;;19.48;10.35;;;-0.10;99.90;;;;;;4976173;28;20106;-71
2024/01/28 06:10:50;;;;;;;20.52;8.85;;;-0.10;99.90;;;;;;4973393;28;20041;-70
2024/01/28 06:13:15;;;;;;;20.00;9.02;;;-0.10;99.90;;;;;;4971141;28;20153;-71
2024/01/28 06:15:41;;;;;;;17.77;9.27;;;-0.10;99.90;;;;;;4973318;28;20030;-70
2024/01/28 06:18:07;;;;;;;17.70;9.70;;;-0.10;99.90;;;;;;4968836;28;20057;-70
2024/01/28 06:20:35;;;;;;;19.67;9.85;;;-0.10;99.90;;;;;;4967512;28;20034;-70
2024/01/28 06:23:01;;;;;;;19.42;9.50;;;-0.20;99.90;;;;;;4970314;28;20053;-72
2024/01/28 06:25:27;;;;;;;18.98;9.30;;;-0.20;99.90;;;;;;4973028;28;20038;-72
2024/01/28 06:27:52;;;;;;;19.65;10.18;;;-0.30;99.90;;;;;;4969415;28;20490;-71
2024/01/28 06:30:18;;;;;;;18.17;9.70;;;-0.30;99.90;;;;;;4991789;28;20398;-70
2024/01/28 06:32:43;;;;;;;21.67;10.80;;;-0.30;99.90;;;;;;4978511;28;20037;-70
2024/01/28 06:35:09;;;;;;;19.33;10.23;;;-0.30;99.90;;;;;;4968321;28;20035;-71
2024/01/28 06:37:36;;;;;;;19.60;9.68;;;-0.40;99.90;;;;;;4979329;28;20045;-70
2024/01/28 06:40:02;;;;;;;20.55;10.00;;;-0.40;99.90;;;;;;4970731;28;20033;-70
2024/01/28 06:42:31;;;;;;;20.00;10.57;;;-0.40;99.90;;;;;;4973892;28;20027;-71
2024/01/28 06:45:00;;;;;;;22.73;10.57;;;-0.40;99.90;;;;;;4974212;28;20023;-70
2024/01/28 06:47:26;;;;;;;19.50;9.35;;;-0.50;99.90;;;;;;4982181;28;20490;-73
2024/01/28 06:49:51;;;;;;;24.25;9.35;;;-0.50;99.90;;;;;;4975414;28;20035;-70
2024/01/28 06:52:17;;;;;;;19.98;10.32;;;-0.50;99.90;;;;;;4978029;28;20019;-71
2024/01/28 06:54:43;;;;;;;19.77;9.82;;;-0.50;99.90;;;;;;4983213;28;20049;-70
2024/01/28 06:57:09;;;;;;;16.40;9.10;;;-0.50;99.90;;;;;;4975282;28;20478;-70
2024/01/28 06:59:35;;;;;;;22.50;9.55;;;-0.60;99.90;;;;;;4966060;28;20077;-70
2024/01/28 07:02:00;;;;;;;20.10;8.75;;;-0.50;99.90;;;;;;4969183;28;20417;-70
2024/01/28 07:04:26;;;;;;;17.17;9.20;;;-0.50;99.90;;;;;;4974771;28;20031;-71
2024/01/28 07:06:52;;;;;;;22.55;10.35;;;-0.60;99.90;;;;;;4974138;28;20035;-70
2024/01/28 07:09:18;;;;;;;22.48;10.77;;;-0.50;99.90;;;;;;4971360;28;20039;-70
2024/01/28 07:11:44;;;;;;;23.08;10.65;;;-0.50;99.90;;;;;;4973153;28;20406;-70
2024/01/28 07:14:10;;;;;;;20.73;10.98;;;-0.50;99.90;;;;;;4968288;28;20027;-70
2024/01/28 07:16:36;;;;;;;23.30;10.30;;;-0.50;99.90;;;;;;4972979;28;20015;-70
2024/01/28 07:19:02;;;;;;;21.38;10.57;;;-0.50;99.90;;;;;;4969273;28;20026;-70
2024/01/28 07:21:27;;;;;;;19.77;11.05;;;-0.50;99.90;;;;;;4967268;28;20478;-71
2024/01/28 07:23:53;;;;;;;21.63;11.05;;;-0.40;99.90;;;;;;4969517;28;20031;-70
2024/01/28 07:26:19;;;;;;;23.77;10.85;;;-0.40;99.90;;;;;;4967490;28;20490;-70
2024/01/28 07:28:44;;;;;;;24.50;11.35;;;-0.40;99.90;;;;;;4968732;28;20046;-70
2024/01/28 07:31:10;;;;;;;16.85;8.90;;;-0.40;99.90;;;;;;4965773;28;20039;-70
2024/01/28 07:33:35;;;;;;;19.98;10.13;;;-0.30;99.90;;;;;;4975866;28;20027;-69
2024/01/28 07:36:01;;;;;;;15.93;9.65;;;-0.30;99.90;;;;;;4965598;28;20030;-69
2024/01/28 07:38:28;;;;;;;18.92;9.70;;;-0.30;99.90;;;;;;4967890;28;20085;-70
2024/01/28 07:40:54;;;;;;;18.60;9.57;;;-0.20;99.90;;;;;;4973545;28;20035;-69
2024/01/28 07:43:19;;;;;;;21.90;9.38;;;-0.20;99.90;;;;;;4973054;28;20034;-69
2024/01/28 07:45:45;;;;;;;18.75;9.40;;;-0.20;99.90;;;;;;4969691;28;20437;-69
2024/01/28 07:48:11;;;;;;;15.38;8.35;;;-0.20;99.90;;;;;;4969651;28;20030;-70
2024/01/28 07:50:36;;;;;;;16.88;8.15;;;-0.20;99.90;;;;;;4972280;28;20054;-71
2024/01/28 07:53:02;;;;;;;18.38;9.00;;;-0.10;99.90;;;;;;4968562;28;20034;-70
2024/01/28 07:55:27;;;;;;;15.75;8.30;;;-0.10;99.90;;;;;;4972054;28;20057;-70
2024/01/28 07:57:54;;;;;;;18.13;9.40;;;-0.10;99.90;;;;;;4970574;28;20789;-70
2024/01/28 08:00:20;;;;;;;17.52;8.70;;;-0.10;99.90;;;;;;4966316;28;20023;-71
2024/01/28 08:02:46;;;;;;;17.45;8.77;;;0.00;99.90;;;;;;4972091;28;20029;-70
2024/01/28 08:05:12;;;;;;;17.42;9.70;;;0.00;99.90;;;;;;4966476;28;20061;-70
2024/01/28 08:07:37;;;;;;;15.68;8.02;;;0.00;99.90;;;;;;4971068;28;20034;-69
2024/01/28 08:10:03;;;;;;;14.68;7.55;;;0.10;99.90;;;;;;4970621;28;20030;-70
2024/01/28 08:12:29;;;;;;;18.83;8.50;;;0.10;99.90;;;;;;4970629;28;20415;-71
2024/01/28 08:14:55;;;;;;;17.25;8.30;;;0.10;99.90;;;;;;4972790;28;20122;-71
2024/01/28 08:17:20;;;;;;;18.48;9.50;;;0.20;99.90;;;;;;4970453;28;20100;-70
2024/01/28 08:19:46;;;;;;;19.67;9.10;;;0.20;99.90;;;;;;4966370;28;20046;-70
2024/01/28 08:22:12;;;;;;;17.15;9.60;;;0.20;99.90;;;;;;4965289;28;20038;-70
2024/01/28 08:24:37;;;;;;;14.18;8.48;;;0.30;99.90;;;;;;4965888;28;20114;-68
2024/01/28 08:27:03;;;;;;;15.30;9.15;;;0.30;99.90;;;;;;4971368;28;20098;-69
2024/01/28 08:29:29;;;;;;;14.38;8.32;;;0.30;99.90;;;;;;4967951;28;20038;-69
2024/01/28 08:31:55;;;;;;;21.90;9.10;;;0.40;99.90;;;;;;4967959;28;20030;-71
2024/01/28 08:34:20;;;;;;;16.38;8.60;;;0.40;99.90;;;;;;4961147;28;20038;-69
2024/01/28 08:36:46;;;;;;;16.63;8.23;;;0.50;99.90;;;;;;4965921;28;20445;-70
2024/01/28 08:39:14;;;;;;;17.88;9.25;;;0.50;99.90;;;;;;4970535;28;20026;-71
2024/01/28 08:41:40;;;;;;;15.45;9.05;;;0.50;99.90;;;;;;4972232;28;20026;-71
2024/01/28 08:44:06;;;;;;;16.30;8.32;;;0.50;99.90;;;;;;4969502;28;20045;-71
2024/01/28 08:46:37;;;;;;;17.27;8.95;;;0.60;99.90;;;;;;4965035;28;20142;-71
2024/01/28 08:49:02;;;;;;;18.75;9.90;;;0.60;99.90;;;;;;4973671;28;20183;-70
2024/01/28 08:51:28;;;;;;;19.50;9.55;;;0.70;99.90;;;;;;4964412;28;20035;-70
2024/01/28 08:53:53;;;;;;;17.15;9.05;;;0.70;99.90;;;;;;4968488;28;20023;-70
2024/01/28 08:56:19;;;;;;;14.30;8.43;;;0.80;99.90;;;;;;4978520;28;20062;-70
2024/01/28 08:58:44;;;;;;;13.57;8.38;;;0.90;99.90;;;;;;4965871;28;20105;-71
2024/01/28 09:01:13;;;;;;;16.63;8.43;;;0.90;99.90;;;;;;4972215;28;20085;-70
2024/01/28 09:03:38;;;;;;;15.68;9.13;;;1.00;99.90;;;;;;4974453;28;20018;-69
2024/01/28 09:06:05;;;;;;;18.50;8.60;;;1.00;99.90;;;;;;4970378;28;20094;-72
2024/01/28 09:08:31;;;;;;;17.25;8.85;;;1.10;99.90;;;;;;4971087;28;20022;-71
2024/01/28 09:10:57;;;;;;;15.77;9.02;;;1.10;99.90;;;;;;4973793;28;20030;-71
2024/01/28 09:13:24;;;;;;;15.85;8.77;;;1.20;99.90;;;;;;4968748;28;20030;-71
2024/01/28 09:15:50;;;;;;;21.38;8.85;;;1.20;99.90;;;;;;4966054;28;20081;-71
2024/01/28 09:18:15;;;;;;;21.23;10.05;;;1.30;99.90;;;;;;4972439;28;20431;-71
2024/01/28 09:20:41;;;;;;;16.17;9.60;;;1.30;99.90;;;;;;4965853;28;20482;-71
2024/01/28 09:23:07;;;;;;;15.63;9.63;;;1.40;99.90;;;;;;4966756;28;20177;-71
2024/01/28 09:25:33;;;;;;;16.25;8.98;;;1.50;99.90;;;;;;4966799;28;20074;-71
2024/01/28 09:27:59;;;;;;;16.83;10.10;;;1.50;99.90;;;;;;4973313;28;20034;-71
2024/01/28 09:30:25;;;;;;;15.98;9.43;;;1.60;99.90;;;;;;4961547;28;20410;-71
2024/01/28 09:32:51;;;;;;;17.27;10.40;;;1.60;99.90;;;;;;4964186;28;20031;-71
2024/01/28 09:35:16;;;;;;;15.82;9.63;;;1.60;99.90;;;;;;4966667;28;20035;-70
2024/01/28 09:37:42;;;;;;;16.13;8.75;;;1.70;99.90;;;;;;4969063;28;20031;-71
2024/01/28 09:40:11;;;;;;;15.23;8.68;;;1.70;99.90;;;;;;4968957;28;20034;-72
2024/01/28 09:42:46;;;;;;;15.95;8.52;;;1.80;99.90;;;;;;4967623;28;20081;-67
2024/01/28 09:45:13;;;;;;;17.58;8.70;;;1.90;99.90;;;;;;4964922;28;20157;-67
2024/01/28 09:47:40;;;;;;;17.17;9.73;;;1.90;99.90;;;;;;4967831;28;20031;-68
2024/01/28 09:50:08;;;;;;;15.20;9.02;;;2.00;99.90;;;;;;4967223;28;20019;-71
2024/01/28 09:52:33;;;;;;;16.20;9.10;;;2.10;99.90;;;;;;4971763;28;20022;-71
2024/01/28 09:54:59;;;;;;;15.18;8.93;;;2.20;99.90;;;;;;4969868;28;20406;-71
2024/01/28 09:57:25;;;;;;;14.25;8.27;;;2.20;99.90;;;;;;4964961;28;20399;-72
2024/01/28 09:59:51;;;;;;;16.77;8.85;;;2.30;99.90;;;;;;4960454;28;20023;-71
2024/01/28 10:02:17;;;;;;;17.63;8.73;;;2.30;99.90;;;;;;4959156;28;20026;-71
2024/01/28 10:04:45;;;;;;;19.52;9.55;;;2.40;99.90;;;;;;4964375;28;20390;-71
2024/01/28 10:07:11;;;;;;;15.63;8.57;;;2.40;99.90;;;;;;4963878;28;20019;-71
2024/01/28 10:09:37;;;;;;;13.18;8.85;;;2.50;99.90;;;;;;4970696;28;20406;-71
2024/01/28 10:12:04;;;;;;;12.50;8.30;;;2.50;99.90;;;;;;4962041;28;20022;-72
2024/01/28 10:14:29;;;;;;;13.00;7.78;;;2.60;99.90;;;;;;4975553;28;20038;-72
2024/01/28 10:16:57;;;;;;;13.80;7.20;;;2.60;99.90;;;;;;4963409;28;20375;-71
2024/01/28 10:19:23;;;;;;;13.95;7.80;;;2.70;99.90;;;;;;4967239;28;20026;-71
2024/01/28 10:21:48;;;;;;;12.95;7.75;;;2.70;99.90;;;;;;4971148;28;20442;-72
2024/01/28 10:24:16;;;;;;;12.80;7.85;;;2.80;99.90;;;;;;4964398;28;20027;-71
2024/01/28 10:26:42;;;;;;;15.88;8.15;;;2.90;99.90;;;;;;4962727;28;20398;-71
2024/01/28 10:29:09;;;;;;;12.75;7.60;;;3.00;99.90;;;;;;4963688;28;20031;-71
2024/01/28 10:31:34;;;;;;;16.05;8.05;;;3.00;99.90;;;;;;4967928;28;20041;-71
2024/01/28 10:34:00;;;;;;;13.23;7.28;;;3.00;99.90;;;;;;4964943;28;20042;-71
2024/01/28 10:36:26;;;;;;;12.82;7.10;;;3.10;99.90;;;;;;4955477;28;20402;-71
2024/01/28 10:39:00;;;;;;;12.73;7.60;;;3.20;99.90;;;;;;4964110;28;20034;-72
2024/01/28 10:41:26;;;;;;;11.68;6.80;;;3.20;99.90;;;;;;4969565;28;20026;-72
2024/01/28 10:43:57;;;;;;;12.63;6.25;;;3.30;99.90;;;;;;4971757;28;20035;-71
2024/01/28 10:46:37;;;;;;;10.77;6.82;;;3.40;99.90;;;;;;4966165;28;20026;-72
2024/01/28 10:49:08;;;;;;;14.65;7.00;;;3.40;99.90;;;;;;4968252;28;20097;-72
2024/01/28 10:51:35;;;;;;;13.18;7.18;;;3.50;99.90;;;;;;4970138;28;20041;-71
2024/01/28 10:54:07;;;;;;;14.25;7.88;;;3.50;99.90;;;;;;4965886;28;20018;-71
2024/01/28 10:56:42;;;;;;;12.73;6.65;;;3.60;99.90;;;;;;4964900;28;20027;-73
2024/01/28 10:59:08;;;;;;;10.27;6.75;;;3.70;99.90;;;;;;4963535;28;20407;-72
2024/01/28 11:01:34;;;;;;;12.95;6.47;;;3.80;99.90;;;;;;4966169;28;20023;-72
2024/01/28 11:04:03;;;;;;;9.35;5.85;;;3.80;99.90;;;;;;4972096;28;20105;-71
2024/01/28 11:06:32;;;;;;;10.70;5.80;;;3.90;99.90;;;;;;4969025;28;20037;-69
2024/01/28 11:08:58;;;;;;;12.40;6.40;;;4.00;99.90;;;;;;4971563;28;20042;-72
2024/01/28 11:11:24;;;;;;;9.80;5.13;;;4.00;99.90;;;;;;4973286;28;20022;-73
2024/01/28 11:13:50;;;;;;;8.13;5.07;;;4.10;99.90;;;;;;4971730;28;20495;-73
2024/01/28 11:16:18;;;;;;;12.05;5.15;;;4.20;99.90;;;;;;4974009;28;20102;-72
2024/01/28 11:19:16;;;;;;;10.45;5.25;;;4.30;99.90;;;;;;4971123;28;20023;-73
2024/01/28 11:21:50;;;;;;;8.93;4.85;;;4.30;99.90;;;;;;4960960;28;20035;-75
2024/01/28 11:24:17;;;;;;;9.25;4.95;;;4.40;99.90;;;;;;4968911;28;20058;-73
2024/01/28 11:26:46;;;;;;;9.05;5.50;;;4.50;99.90;;;;;;4967860;28;20038;-72
2024/01/28 11:29:12;;;;;;;8.60;4.85;;;4.60;99.90;;;;;;4966841;28;20177;-71
2024/01/28 11:31:39;;;;;;;9.18;4.97;;;4.60;99.90;;;;;;4974989;28;20054;-72
2024/01/28 11:34:21;;;;;;;9.20;4.93;;;4.70;99.90;;;;;;4965420;28;20034;-71
2024/01/28 11:36:51;;;;;;;9.02;5.43;;;4.70;99.90;;;;;;4972089;28;20501;-71
2024/01/28 11:39:35;;;;;;;8.50;5.30;;;4.80;99.90;;;;;;4968915;28;20563;-73
2024/01/28 11:42:01;;;;;;;8.50;4.20;;;4.80;99.90;;;;;;4971590;28;20053;-71
2024/01/28 11:44:28;;;;;;;6.97;4.60;;;4.80;99.90;;;;;;4973348;28;20065;-71
2024/01/28 11:46:55;;;;;;;7.00;4.60;;;4.90;99.90;;;;;;4976790;28;20037;-71
2024/01/28 11:49:20;;;;;;;9.68;4.82;;;4.90;99.90;;;;;;4978316;28;20347;-72
2024/01/28 11:51:46;;;;;;;8.68;5.22;;;4.90;99.90;;;;;;4966031;28;20026;-72
2024/01/28 11:54:12;;;;;;;6.68;4.28;;;5.00;99.90;;;;;;4969776;28;20031;-71
2024/01/28 11:56:39;;;;;;;5.38;3.90;;;5.00;99.90;;;;;;4971592;28;20065;-72
2024/01/28 11:59:06;;;;;;;9.88;4.75;;;5.00;99.90;;;;;;4966003;28;20019;-72
2024/01/28 12:01:32;;;;;;;9.68;4.45;;;5.10;99.90;;;;;;4972285;28;20490;-73
2024/01/28 12:03:58;;;;;;;8.43;4.72;;;5.10;99.90;;;;;;4963357;28;20446;-72
2024/01/28 12:06:27;;;;;;;7.70;4.63;;;5.10;99.90;;;;;;4970490;28;20042;-71
2024/01/28 12:08:53;;;;;;;11.75;4.72;;;5.20;99.90;;;;;;4959809;28;20037;-72
2024/01/28 12:11:21;;;;;;;10.73;4.78;;;5.20;99.90;;;;;;4966488;28;20154;-73
2024/01/28 12:13:48;;;;;;;6.57;4.75;;;5.20;99.90;;;;;;4972673;28;20399;-72
2024/01/28 12:16:21;;;;;;;9.98;4.28;;;5.30;99.90;;;;;;4968558;28;20041;-72
2024/01/28 12:18:47;;;;;;;8.30;4.57;;;5.30;99.90;;;;;;4968888;28;20441;-72
2024/01/28 12:21:19;;;;;;;8.77;4.50;;;5.40;99.90;;;;;;4974305;28;20043;-72
2024/01/28 12:23:46;;;;;;;10.60;4.43;;;5.40;99.90;;;;;;4971678;28;20368;-72
2024/01/28 12:26:13;;;;;;;8.30;4.43;;;5.50;99.90;;;;;;4967612;28;20758;-73
2024/01/28 12:28:39;;;;;;;6.57;3.42;;;5.60;99.90;;;;;;4977810;28;20030;-72
2024/01/28 12:31:04;;;;;;;7.35;4.20;;;5.70;99.90;;;;;;4971539;28;20238;-73
2024/01/28 12:33:31;;;;;;;10.50;3.67;;;5.70;99.90;;;;;;4969637;28;20577;-72
2024/01/28 12:35:56;;;;;;;5.65;3.40;;;5.80;99.90;;;;;;4969752;28;20027;-72